Rawlins, Wyoming
Current Conditions -  °F | °C
As of 9:53 PM on Monday 20 Oct 2014 (Local Time) from KRWL Reporting Station
Broken Clouds Broken Clouds  
Wind Chill: 44°   Ceiling: 11000
Heat Index: 48°   Visibility: 10mi
Dew Point: 32°   Wind: 8mph
Humidity: 54%   Direction: 250°WSW
Pressure: 30.11"   Gusts: NA
Location:  41.79°N, 107.23°W
Report Text: KRWL 210353Z AUTO 25007KT 10SM BKN110 09/00 A3011 RMK AO2 SLP151 T00890000
Loading
Personal Weather Stations






























Interactive Weather Map
Tropical Storm Tracking
New forecast layout! Learn more

10-Day Weather Forecast

Advertisements
Track Severe Weather on mobile